createdAt,value
2017-12-14T00:01:36.380Z,3.17
2017-12-14T00:04:05.513Z,3.42
2017-12-14T00:06:33.941Z,3.58
2017-12-14T00:09:02.678Z,3.61
2017-12-14T00:11:32.181Z,3.69
2017-12-14T00:14:00.505Z,3.83
2017-12-14T00:16:30.381Z,3.90
2017-12-14T00:18:58.784Z,3.79
2017-12-14T00:21:27.104Z,3.91
2017-12-14T00:23:55.473Z,3.90
2017-12-14T00:26:24.603Z,3.91
2017-12-14T00:28:53.308Z,3.92
2017-12-14T00:31:21.686Z,3.99
2017-12-14T00:33:50.080Z,3.96
2017-12-14T00:36:18.405Z,3.97
2017-12-14T00:38:46.768Z,4.05
2017-12-14T00:41:15.892Z,4.13
2017-12-14T00:43:45.969Z,4.20
2017-12-14T00:46:15.102Z,4.22
2017-12-14T00:48:43.420Z,4.32
2017-12-14T00:51:11.811Z,4.18
2017-12-14T00:53:40.185Z,3.92
2017-12-14T00:56:08.552Z,3.76
2017-12-14T00:58:36.928Z,3.69
2017-12-14T01:01:05.252Z,3.79
2017-12-14T01:03:33.578Z,4.05
2017-12-14T01:06:02.712Z,4.16
2017-12-14T01:08:31.804Z,4.25
2017-12-14T01:11:00.932Z,4.30
2017-12-14T01:13:29.267Z,4.38
2017-12-14T01:15:57.697Z,4.39
2017-12-14T01:18:26.864Z,4.43
2017-12-14T01:20:55.988Z,4.44
2017-12-14T01:23:25.076Z,4.50
2017-12-14T01:25:53.396Z,4.52
2017-12-14T01:28:21.752Z,4.53
2017-12-14T01:30:50.119Z,4.58
2017-12-14T01:33:19.263Z,4.57
2017-12-14T01:35:47.645Z,4.58
2017-12-14T01:38:16.779Z,4.67
2017-12-14T01:40:45.491Z,4.65
2017-12-14T01:43:13.857Z,4.67
2017-12-14T01:45:42.234Z,4.73
2017-12-14T01:48:10.968Z,4.73
2017-12-14T01:50:39.318Z,4.74
2017-12-14T01:53:07.634Z,4.83
2017-12-14T01:55:36.752Z,4.87
2017-12-14T01:58:05.123Z,4.89
2017-12-14T02:00:33.519Z,4.91
2017-12-14T02:03:01.873Z,4.84
2017-12-14T02:05:30.947Z,4.92
2017-12-14T02:07:59.303Z,4.93
2017-12-14T02:10:27.747Z,4.79
2017-12-14T02:12:56.075Z,4.78
2017-12-14T02:15:24.795Z,4.74
2017-12-14T02:17:53.143Z,4.63
2017-12-14T02:20:21.539Z,4.71
2017-12-14T02:22:50.251Z,4.71
2017-12-14T02:25:18.607Z,4.65
2017-12-14T02:27:46.955Z,4.54
2017-12-14T02:30:15.267Z,4.61
2017-12-14T02:32:43.611Z,4.63
2017-12-14T02:35:11.927Z,4.63
2017-12-14T02:37:40.295Z,4.63
2017-12-14T02:40:08.615Z,4.66
2017-12-14T02:42:37.381Z,4.63
2017-12-14T02:45:06.471Z,4.55
2017-12-14T02:47:34.803Z,4.53
2017-12-14T02:50:03.155Z,4.57
2017-12-14T02:52:31.923Z,4.51
2017-12-14T02:55:00.243Z,4.46
2017-12-14T02:57:28.603Z,4.41
2017-12-14T02:59:57.366Z,4.43
2017-12-14T03:02:25.691Z,4.36
2017-12-14T03:04:54.786Z,4.27
2017-12-14T03:07:24.502Z,4.16
2017-12-14T03:09:53.583Z,4.27
2017-12-14T03:12:21.934Z,4.23
2017-12-14T03:14:50.291Z,4.22
2017-12-14T03:17:18.634Z,4.31
2017-12-14T03:19:47.710Z,4.18
2017-12-14T03:22:16.857Z,4.23
2017-12-14T03:24:45.186Z,4.22
2017-12-14T03:27:13.556Z,4.24
2017-12-14T03:29:41.879Z,4.16
2017-12-14T03:32:10.201Z,4.18
2017-12-14T03:34:38.574Z,4.27
2017-12-14T03:37:07.070Z,4.30
2017-12-14T03:39:35.399Z,4.37
2017-12-14T03:42:03.774Z,4.49
2017-12-14T03:44:32.103Z,4.45
2017-12-14T03:47:01.186Z,4.35
2017-12-14T03:49:29.566Z,4.37
2017-12-14T03:51:57.915Z,4.46
2017-12-14T03:54:26.681Z,4.58
2017-12-14T03:56:54.999Z,4.56
2017-12-14T03:59:23.314Z,4.55
2017-12-14T04:01:53.027Z,4.59
2017-12-14T04:04:22.106Z,4.56
2017-12-14T04:06:51.234Z,4.62
2017-12-14T04:09:19.575Z,4.63
2017-12-14T04:11:48.342Z,4.67
2017-12-14T04:14:16.718Z,4.63
2017-12-14T04:16:45.062Z,4.66
2017-12-14T04:19:13.814Z,4.72
2017-12-14T04:21:42.590Z,4.67
2017-12-14T04:24:11.702Z,4.83
2017-12-14T04:26:40.467Z,4.77
2017-12-14T04:29:08.786Z,4.78
2017-12-14T04:31:37.146Z,4.76
2017-12-14T04:34:06.310Z,4.73
2017-12-14T04:36:34.651Z,4.76
2017-12-14T04:39:03.788Z,4.61
2017-12-14T04:41:32.118Z,4.44
2017-12-14T04:44:00.497Z,4.20
2017-12-14T04:46:28.818Z,4.08
2017-12-14T04:48:57.242Z,4.11
2017-12-14T04:51:25.598Z,4.11
2017-12-14T04:53:55.101Z,4.19
2017-12-14T04:56:24.193Z,4.15
2017-12-14T04:58:52.982Z,4.13
2017-12-14T05:01:21.306Z,4.12
2017-12-14T05:03:49.654Z,4.14
2017-12-14T05:06:18.775Z,4.11
2017-12-14T05:08:47.156Z,4.12
2017-12-14T05:11:16.882Z,4.10
2017-12-14T05:13:45.642Z,4.12
2017-12-14T05:16:14.010Z,4.04
2017-12-14T05:18:42.726Z,4.17
2017-12-14T05:21:22.018Z,4.23
2017-12-14T05:23:50.737Z,4.27
2017-12-14T05:26:19.071Z,4.28
2017-12-14T05:28:48.214Z,4.30
2017-12-14T05:31:16.574Z,4.41
2017-12-14T05:33:44.907Z,4.42
2017-12-14T05:36:13.730Z,4.53
2017-12-14T05:38:43.214Z,4.61
2017-12-14T05:41:12.711Z,4.50
2017-12-14T05:43:41.810Z,4.27
2017-12-14T05:46:11.314Z,4.17
2017-12-14T05:48:39.767Z,4.13
2017-12-14T05:51:08.090Z,3.99
2017-12-14T05:53:37.210Z,3.92
2017-12-14T05:56:06.309Z,3.99
2017-12-14T05:58:34.658Z,3.88
2017-12-14T06:01:03.758Z,3.84
2017-12-14T06:03:32.122Z,3.77
2017-12-14T06:06:01.386Z,3.70
2017-12-14T06:08:30.542Z,3.74
2017-12-14T06:10:58.874Z,3.65
2017-12-14T06:13:27.206Z,3.62
2017-12-14T06:15:55.570Z,3.65
2017-12-14T06:18:23.886Z,3.63
2017-12-14T06:20:52.218Z,3.64
2017-12-14T06:23:21.119Z,3.59
2017-12-14T06:25:49.465Z,3.52
2017-12-14T06:28:18.638Z,3.51
2017-12-14T06:30:47.729Z,3.52
2017-12-14T06:33:16.098Z,3.40
2017-12-14T06:35:46.054Z,3.46
2017-12-14T06:38:15.923Z,3.48
2017-12-14T06:40:44.283Z,3.50
2017-12-14T06:43:12.611Z,3.56
2017-12-14T06:45:40.966Z,3.60
2017-12-14T06:48:10.693Z,3.67
2017-12-14T06:50:39.062Z,3.77
2017-12-14T06:53:07.409Z,3.82
2017-12-14T06:55:38.827Z,3.88
2017-12-14T06:58:07.958Z,3.93
2017-12-14T07:00:37.066Z,3.98
2017-12-14T07:03:27.278Z,3.99
2017-12-14T07:05:56.377Z,4.08
2017-12-14T07:08:25.225Z,4.06
2017-12-14T07:10:53.989Z,4.07
2017-12-14T07:13:23.837Z,4.02
2017-12-14T07:15:53.597Z,4.03
2017-12-14T07:18:21.917Z,4.04
2017-12-14T07:20:50.264Z,4.10
2017-12-14T07:23:18.583Z,4.18
2017-12-14T07:25:46.926Z,4.24
2017-12-14T07:28:16.061Z,4.32
2017-12-14T07:30:44.949Z,4.35
2017-12-14T07:33:14.027Z,4.39
2017-12-14T07:35:42.375Z,4.45
2017-12-14T07:38:11.111Z,4.54
2017-12-14T07:40:39.469Z,4.70
2017-12-14T07:43:12.273Z,4.89
2017-12-14T07:46:10.988Z,5.03
2017-12-14T07:48:45.933Z,5.15
2017-12-14T07:51:15.067Z,5.22
2017-12-14T07:53:43.781Z,5.29
2017-12-14T07:56:12.173Z,5.38
2017-12-14T07:58:40.609Z,5.45
2017-12-14T08:01:09.705Z,5.54
2017-12-14T08:03:38.097Z,5.59
2017-12-14T08:06:06.864Z,5.60
2017-12-14T08:08:35.276Z,5.64
2017-12-14T08:11:03.748Z,5.70
2017-12-14T08:13:32.084Z,5.73
2017-12-14T08:16:00.445Z,5.77
2017-12-14T08:18:29.560Z,5.77
2017-12-14T08:20:57.932Z,5.79
2017-12-14T08:23:27.431Z,5.86
2017-12-14T08:25:56.245Z,5.89
2017-12-14T08:28:24.578Z,5.94
2017-12-14T08:30:53.965Z,5.98
2017-12-14T08:33:22.404Z,5.98
2017-12-14T08:35:51.171Z,5.99
2017-12-14T08:38:19.503Z,6.02
2017-12-14T08:40:47.865Z,6.10
2017-12-14T08:43:16.660Z,6.17
2017-12-14T08:45:45.021Z,6.16
2017-12-14T08:48:13.725Z,6.21
2017-12-14T08:50:42.047Z,6.14
2017-12-14T08:53:11.176Z,6.20
2017-12-14T08:55:39.952Z,6.18
2017-12-14T08:58:08.345Z,6.22
2017-12-14T09:00:36.820Z,6.21
2017-12-14T09:03:05.238Z,6.17
2017-12-14T09:05:34.014Z,6.27
2017-12-14T09:08:02.334Z,6.05
2017-12-14T09:10:31.434Z,5.85
2017-12-14T09:12:59.796Z,5.65
2017-12-14T09:15:28.120Z,5.59
2017-12-14T09:17:56.477Z,5.49
2017-12-14T09:20:24.852Z,5.50
2017-12-14T09:22:53.637Z,5.63
2017-12-14T09:25:23.091Z,5.56
2017-12-14T09:27:51.453Z,5.36
2017-12-14T09:30:20.156Z,4.76
2017-12-14T09:32:49.264Z,4.42
2017-12-14T09:35:17.604Z,4.33
2017-12-14T09:37:45.932Z,4.25
2017-12-14T09:40:15.220Z,3.84
2017-12-14T09:42:43.540Z,3.36
2017-12-14T09:45:11.872Z,2.98
2017-12-14T09:47:40.244Z,2.72
2017-12-14T09:50:08.565Z,2.43
2017-12-14T09:52:37.663Z,2.46
2017-12-14T09:55:06.035Z,2.39
2017-12-14T09:57:34.347Z,2.22
2017-12-14T10:00:02.724Z,2.08
2017-12-14T10:02:31.055Z,2.06
2017-12-14T10:04:59.801Z,2.09
2017-12-14T10:07:28.132Z,2.11
2017-12-14T10:09:56.937Z,2.22
2017-12-14T10:12:26.079Z,2.32
2017-12-14T10:14:54.399Z,2.38
2017-12-14T10:17:24.263Z,2.36
2017-12-14T10:19:52.636Z,2.21
2017-12-14T10:22:20.992Z,2.42
2017-12-14T10:24:49.361Z,2.37
2017-12-14T10:27:18.065Z,2.50
2017-12-14T10:29:46.787Z,2.58
2017-12-14T10:32:15.530Z,2.69
2017-12-14T10:34:43.857Z,2.60
2017-12-14T10:37:18.607Z,2.71
2017-12-14T10:39:46.923Z,2.81
2017-12-14T10:42:16.835Z,2.84
2017-12-14T10:44:45.155Z,2.84
2017-12-14T10:47:13.883Z,2.94
2017-12-14T10:49:43.579Z,3.03
2017-12-14T10:52:12.711Z,3.06
2017-12-14T10:54:41.076Z,3.06
2017-12-14T10:57:09.447Z,3.02
2017-12-14T10:59:37.811Z,2.98
2017-12-14T11:02:06.175Z,2.99
2017-12-14T11:04:34.691Z,2.95
2017-12-14T11:07:03.023Z,2.91
2017-12-14T11:09:32.125Z,2.87
2017-12-14T11:12:00.915Z,2.92
2017-12-14T11:14:29.235Z,2.91
2017-12-14T11:16:57.614Z,3.09
2017-12-14T11:19:26.712Z,3.22
2017-12-14T11:21:55.067Z,3.31
2017-12-14T11:24:23.399Z,3.35
2017-12-14T11:26:52.519Z,3.39
2017-12-14T11:29:20.839Z,3.33
2017-12-14T11:31:49.195Z,3.30
2017-12-14T11:34:17.944Z,3.32
2017-12-14T11:36:46.503Z,3.25
2017-12-14T11:39:18.854Z,3.22
2017-12-14T11:41:47.282Z,3.32
2017-12-14T11:44:15.728Z,3.43
2017-12-14T11:46:45.499Z,3.47
2017-12-14T11:49:13.992Z,3.43
2017-12-14T11:51:42.395Z,3.34
2017-12-14T11:54:11.663Z,3.23
2017-12-14T11:56:40.130Z,3.12
2017-12-14T11:59:08.487Z,3.22
2017-12-14T12:01:36.843Z,3.40
2017-12-14T12:04:06.047Z,3.51
2017-12-14T12:06:34.800Z,3.63
2017-12-14T12:09:03.175Z,3.84
2017-12-14T12:11:31.952Z,4.16
2017-12-14T12:14:00.303Z,4.20
2017-12-14T12:16:28.638Z,4.23
2017-12-14T12:18:57.015Z,4.20
2017-12-14T12:21:26.090Z,3.81
2017-12-14T12:23:54.494Z,3.81
2017-12-14T12:26:22.866Z,4.06
2017-12-14T12:28:51.614Z,4.15
2017-12-14T12:31:20.366Z,4.20
2017-12-14T12:33:49.887Z,4.20
2017-12-14T12:36:19.566Z,4.21
2017-12-14T12:38:48.691Z,4.19
2017-12-14T12:41:18.589Z,4.35
2017-12-14T12:43:48.311Z,4.38
2017-12-14T12:46:16.640Z,4.34
2017-12-14T12:48:45.395Z,4.28
2017-12-14T12:51:13.742Z,4.32
2017-12-14T12:53:42.867Z,4.34
2017-12-14T12:56:11.195Z,4.49
2017-12-14T12:58:39.566Z,4.49
2017-12-14T13:01:07.886Z,4.72
2017-12-14T13:03:36.274Z,4.76
2017-12-14T13:06:05.370Z,4.57
2017-12-14T13:08:33.715Z,4.64
2017-12-14T13:11:02.178Z,4.59
2017-12-14T13:13:30.523Z,4.58
2017-12-14T13:15:58.855Z,4.63
2017-12-14T13:18:27.990Z,4.63
2017-12-14T13:20:56.759Z,4.61
2017-12-14T13:23:25.486Z,4.76
2017-12-14T13:25:54.223Z,4.64
2017-12-14T13:28:23.007Z,4.66
2017-12-14T13:30:52.199Z,4.81
2017-12-14T13:33:21.338Z,4.84
2017-12-14T13:35:49.655Z,4.92
2017-12-14T13:38:19.162Z,4.92
2017-12-14T13:40:47.886Z,5.10
2017-12-14T13:43:16.210Z,5.02
2017-12-14T13:45:44.964Z,5.04
2017-12-14T13:48:13.606Z,5.05
2017-12-14T13:50:43.486Z,4.92
2017-12-14T13:53:12.250Z,4.99
2017-12-14T13:55:41.758Z,4.98
2017-12-14T13:58:10.498Z,4.94
2017-12-14T14:00:39.647Z,4.87
2017-12-14T14:03:08.742Z,4.61
2017-12-14T14:05:39.422Z,4.53
2017-12-14T14:08:08.571Z,4.39
2017-12-14T14:10:38.035Z,4.31
2017-12-14T14:13:06.378Z,4.25
2017-12-14T14:15:34.760Z,4.16
2017-12-14T14:18:03.119Z,4.04
2017-12-14T14:20:31.480Z,3.96
2017-12-14T14:22:59.820Z,3.84
2017-12-14T14:25:28.621Z,3.80
2017-12-14T14:27:58.158Z,3.77
2017-12-14T14:30:26.498Z,3.76
2017-12-14T14:32:55.226Z,3.74
2017-12-14T14:35:24.021Z,3.79
2017-12-14T14:37:53.870Z,4.02
2017-12-14T14:40:23.017Z,4.14
2017-12-14T14:42:51.355Z,4.24
2017-12-14T14:45:19.736Z,4.25
2017-12-14T14:47:48.066Z,4.13
2017-12-14T14:50:16.515Z,3.83
2017-12-14T14:52:45.614Z,3.53
2017-12-14T14:55:14.393Z,3.32
2017-12-14T14:57:43.109Z,3.19
2017-12-14T15:00:12.201Z,3.08
2017-12-14T15:02:40.947Z,3.09
2017-12-14T15:05:09.665Z,3.11
2017-12-14T15:07:38.462Z,2.97
2017-12-14T15:10:06.778Z,2.87
2017-12-14T15:12:35.122Z,2.79
2017-12-14T15:15:03.486Z,2.90
2017-12-14T15:17:31.855Z,2.99
2017-12-14T15:20:00.221Z,2.98
2017-12-14T15:22:29.357Z,3.12
2017-12-14T15:24:57.742Z,3.37
2017-12-14T15:27:26.069Z,3.46
2017-12-14T15:29:55.777Z,3.52
2017-12-14T15:32:24.157Z,3.52
2017-12-14T15:34:52.490Z,3.50
2017-12-14T15:37:20.930Z,3.64
2017-12-14T15:39:50.012Z,3.79
2017-12-14T15:42:18.751Z,3.91
2017-12-14T15:44:47.105Z,3.95
2017-12-14T15:47:15.446Z,4.04
2017-12-14T15:49:43.809Z,4.12
2017-12-14T15:52:13.326Z,4.20
2017-12-14T15:54:42.072Z,4.26
2017-12-14T15:57:10.412Z,4.31
2017-12-14T15:59:39.515Z,4.38
2017-12-14T16:02:08.288Z,4.43
2017-12-14T16:04:37.452Z,4.47
2017-12-14T16:07:06.564Z,4.49
2017-12-14T16:09:34.904Z,4.50
2017-12-14T16:12:03.315Z,4.57
2017-12-14T16:14:33.040Z,4.62
2017-12-14T16:17:02.170Z,4.63
2017-12-14T16:19:31.324Z,4.67
2017-12-14T16:22:00.430Z,4.61
2017-12-14T16:24:29.140Z,4.64
2017-12-14T16:26:57.606Z,4.71
2017-12-14T16:29:26.353Z,4.68
2017-12-14T16:31:55.656Z,4.75
2017-12-14T16:34:24.179Z,4.79
2017-12-14T16:36:52.997Z,4.82
2017-12-14T16:39:21.361Z,4.90
2017-12-14T16:41:49.700Z,4.99
2017-12-14T16:44:19.636Z,5.08
2017-12-14T16:46:47.972Z,5.03
2017-12-14T16:49:17.596Z,4.96
2017-12-14T16:51:46.804Z,4.93
2017-12-14T16:54:16.069Z,5.01
2017-12-14T16:56:44.408Z,4.98
2017-12-14T16:59:12.740Z,4.96
2017-12-14T17:01:41.904Z,4.95
2017-12-14T17:04:10.661Z,4.93
2017-12-14T17:06:40.380Z,4.93
2017-12-14T17:09:10.064Z,4.97
2017-12-14T17:11:38.428Z,4.90
2017-12-14T17:14:06.757Z,4.89
2017-12-14T17:16:35.140Z,4.85
2017-12-14T17:19:04.393Z,4.97
2017-12-14T17:21:32.760Z,4.88
2017-12-14T17:24:02.028Z,4.78
2017-12-14T17:26:32.528Z,4.67
2017-12-14T17:29:00.848Z,4.65
2017-12-14T17:31:29.992Z,4.57
2017-12-14T17:33:58.322Z,4.47
2017-12-14T17:36:28.201Z,4.45
2017-12-14T17:38:56.584Z,4.42
2017-12-14T17:41:24.906Z,4.36
2017-12-14T17:43:53.280Z,4.29
2017-12-14T17:46:21.999Z,4.24
2017-12-14T17:48:50.375Z,4.22
2017-12-14T17:51:19.669Z,4.20
2017-12-14T17:53:48.796Z,4.21
2017-12-14T17:56:18.641Z,4.21
2017-12-14T17:58:46.995Z,4.17
2017-12-14T18:01:17.185Z,4.21
2017-12-14T18:03:46.447Z,4.30
2017-12-14T18:06:15.716Z,4.32
2017-12-14T18:08:45.815Z,4.38
2017-12-14T18:11:14.175Z,4.49
2017-12-14T18:13:42.500Z,4.58
2017-12-14T18:16:12.619Z,4.59
2017-12-14T18:18:41.011Z,4.69
2017-12-14T18:21:10.361Z,4.74
2017-12-14T18:23:38.720Z,4.66
2017-12-14T18:26:07.812Z,4.59
2017-12-14T18:28:37.985Z,4.53
2017-12-14T18:31:07.494Z,4.50
2017-12-14T18:33:36.638Z,4.60
2017-12-14T18:36:05.696Z,4.68
2017-12-14T18:38:36.653Z,4.81
2017-12-14T18:41:07.855Z,4.81
2017-12-14T18:43:37.335Z,4.90
2017-12-14T18:46:12.849Z,4.99
2017-12-14T18:48:41.765Z,5.06
2017-12-14T18:51:16.023Z,5.11
2017-12-14T18:53:46.498Z,5.11
2017-12-14T18:56:21.555Z,5.20
2017-12-14T19:01:28.656Z,5.41
2017-12-14T19:03:58.311Z,5.44
2017-12-14T19:06:36.254Z,5.45
2017-12-14T19:09:07.990Z,5.44
2017-12-14T19:11:38.375Z,5.48
2017-12-14T19:14:09.380Z,5.46
2017-12-14T19:16:37.914Z,5.47
2017-12-14T19:19:06.727Z,5.44
2017-12-14T19:21:37.863Z,5.46
2017-12-14T19:24:08.759Z,5.42
2017-12-14T19:26:38.607Z,5.42
2017-12-14T19:29:10.287Z,5.42
2017-12-14T19:31:41.615Z,5.38
2017-12-14T19:34:13.420Z,5.34
2017-12-14T19:36:42.770Z,5.36
2017-12-14T19:39:17.036Z,5.27
2017-12-14T19:41:47.254Z,5.14
2017-12-14T19:44:15.819Z,5.08
2017-12-14T19:46:45.150Z,5.01
2017-12-14T19:49:15.359Z,4.89
2017-12-14T19:51:45.419Z,4.70
2017-12-14T19:54:14.503Z,4.55
2017-12-14T19:56:44.464Z,4.55
2017-12-14T19:59:12.959Z,4.57
2017-12-14T20:01:43.111Z,4.53
2017-12-14T20:04:14.382Z,4.41
2017-12-14T20:06:44.966Z,4.27
2017-12-14T20:09:14.910Z,4.13
2017-12-14T20:11:45.222Z,3.94
2017-12-14T20:14:16.312Z,3.79
2017-12-14T20:16:44.698Z,3.79
2017-12-14T20:19:14.778Z,3.66
2017-12-14T20:21:43.551Z,3.50
2017-12-14T20:24:13.150Z,3.40
2017-12-14T20:26:41.724Z,3.39
2017-12-14T20:29:11.834Z,3.34
2017-12-14T20:31:41.193Z,3.27
2017-12-14T20:34:10.074Z,3.19
2017-12-14T20:36:38.851Z,3.09
2017-12-14T20:39:08.034Z,3.03
2017-12-14T20:41:40.371Z,2.95
2017-12-14T20:46:51.450Z,2.98
2017-12-14T20:49:20.664Z,2.93
2017-12-14T20:51:53.014Z,2.96
2017-12-14T20:54:24.270Z,3.08
2017-12-14T20:56:55.214Z,3.20
2017-12-14T20:59:27.674Z,3.04
2017-12-14T21:01:59.320Z,3.00
2017-12-14T21:04:32.446Z,3.01
2017-12-14T21:09:51.558Z,2.92
2017-12-14T21:12:24.346Z,3.03
2017-12-14T21:14:54.028Z,3.13
2017-12-14T21:17:25.547Z,3.19
2017-12-14T21:19:55.042Z,3.23
2017-12-14T21:22:23.973Z,3.32
2017-12-14T21:24:53.729Z,3.30
2017-12-14T21:27:22.189Z,3.20
2017-12-14T21:29:55.436Z,3.13
2017-12-14T21:32:29.589Z,3.04
2017-12-14T21:35:00.261Z,3.02
2017-12-14T21:37:30.201Z,2.96
2017-12-14T21:39:58.841Z,2.95
2017-12-14T21:42:28.477Z,2.97
2017-12-14T21:45:04.393Z,2.97
2017-12-14T21:47:46.417Z,2.79
2017-12-14T21:50:25.034Z,2.73
2017-12-14T21:52:57.229Z,2.64
2017-12-14T21:55:31.254Z,2.71
2017-12-14T21:58:01.742Z,2.78
2017-12-14T22:00:32.458Z,2.75
2017-12-14T22:03:01.093Z,2.74
2017-12-14T22:05:31.016Z,2.66
2017-12-14T22:08:52.184Z,2.59
2017-12-14T22:40:54.564Z,1.99
2017-12-14T22:43:22.889Z,1.95
2017-12-14T22:45:52.734Z,1.82
2017-12-14T22:48:21.086Z,1.80
2017-12-14T22:50:50.204Z,1.79
2017-12-14T22:53:18.584Z,1.75
2017-12-14T22:55:46.912Z,1.81
2017-12-14T22:58:15.268Z,1.87
2017-12-14T23:00:43.586Z,1.89
2017-12-14T23:03:12.712Z,1.83
2017-12-14T23:05:41.836Z,1.80
2017-12-14T23:08:10.188Z,1.79
2017-12-14T23:10:38.565Z,1.85
2017-12-14T23:13:06.912Z,1.87
2017-12-14T23:15:36.008Z,2.03
2017-12-14T23:18:04.400Z,2.24
2017-12-14T23:20:33.140Z,2.45
2017-12-14T23:23:02.266Z,2.45
2017-12-14T23:25:31.388Z,2.36
2017-12-14T23:28:00.477Z,2.21
2017-12-14T23:30:28.845Z,2.14
2017-12-14T23:32:57.937Z,2.15
2017-12-14T23:35:27.081Z,2.12
2017-12-14T23:37:55.441Z,2.04
2017-12-14T23:40:23.776Z,1.98
2017-12-14T23:42:52.928Z,1.86
2017-12-14T23:45:21.280Z,1.83
2017-12-14T23:47:49.659Z,1.79
2017-12-14T23:50:18.785Z,1.75
2017-12-14T23:52:48.456Z,1.71
2017-12-14T23:55:16.772Z,1.64
2017-12-14T23:57:45.144Z,1.66
